GMTA/AHU METAR and TAF weather

Enter ICAO airport designator
Station Type Date Time Source
GMTA METAR 2020/07/04 00:00 UTC NOAA

GMTA 040000Z 34002KT CAVOK 23/19 Q1019 NOSIG


Station Type Date Time Source
GMTA Decoded METAR 2020/07/04 00:00 UTC NOAA

Al Hoceima, Morocco (GMTA) 35-11N 003-51W 14M
Jul 03, 2020 - 08:00 PM EDT / 2020.07.04 0000 UTC
Wind: from the NNW (340 degrees) at 2 MPH (2 KT):0
Visibility: greater than 7 mile(s):0
Temperature: 73 F (23 C)
Dew Point: 66 F (19 C)
Relative Humidity: 78%
Pressure (altimeter): 30.09 in. Hg (1019 hPa)
ob: GMTA 040000Z 34002KT CAVOK 23/19 Q1019 NOSIG
cycle: 0

Station Type Date Time Source
GMTA TAF 2020/07/03 18:18 UTC NOAA

TAF GMTA 031700Z 0318/0424 02006KT CAVOK

Example: see airport list